sensor_id;sensor_type;location;lat;lon;timestamp;pressure;altitude;pressure_sealevel;temperature;humidity
64933;BME280;51446;53.850;10.662;2024-03-02T00:01:48;100421.19;;;8.62;100.00
64933;BME280;51446;53.850;10.662;2024-03-02T00:04:13;100415.53;;;8.40;100.00
64933;BME280;51446;53.850;10.662;2024-03-02T00:06:39;100418.25;;;8.45;100.00
64933;BME280;51446;53.850;10.662;2024-03-02T00:09:04;100410.31;;;8.40;100.00
64933;BME280;51446;53.850;10.662;2024-03-02T00:11:29;100411.19;;;8.41;100.00
64933;BME280;51446;53.850;10.662;2024-03-02T00:13:55;100412.09;;;8.43;100.00
64933;BME280;51446;53.850;10.662;2024-03-02T00:16:20;100416.34;;;8.38;100.00
64933;BME280;51446;53.850;10.662;2024-03-02T00:18:45;100408.59;;;8.42;100.00
64933;BME280;51446;53.850;10.662;2024-03-02T00:21:11;100413.06;;;8.46;100.00
64933;BME280;51446;53.850;10.662;2024-03-02T00:23:38;100408.03;;;8.57;100.00
64933;BME280;51446;53.850;10.662;2024-03-02T00:26:03;100403.72;;;8.61;100.00
64933;BME280;51446;53.850;10.662;2024-03-02T00:28:36;100405.47;;;8.59;100.00
64933;BME280;51446;53.850;10.662;2024-03-02T00:31:09;100403.72;;;8.61;100.00
64933;BME280;51446;53.850;10.662;2024-03-02T00:33:42;100399.03;;;8.43;100.00
64933;BME280;51446;53.850;10.662;2024-03-02T00:36:09;100401.81;;;8.50;100.00
64933;BME280;51446;53.850;10.662;2024-03-02T00:38:44;100400.94;;;8.50;100.00
64933;BME280;51446;53.850;10.662;2024-03-02T00:41:21;100399.38;;;8.61;100.00
64933;BME280;51446;53.850;10.662;2024-03-02T00:43:57;100390.47;;;8.48;100.00
64933;BME280;51446;53.850;10.662;2024-03-02T00:46:23;100394.44;;;8.31;100.00
64933;BME280;51446;53.850;10.662;2024-03-02T00:48:55;100391.94;;;8.36;100.00
64933;BME280;51446;53.850;10.662;2024-03-02T00:51:25;100393.88;;;8.44;100.00
64933;BME280;51446;53.850;10.662;2024-03-02T00:53:52;100393.63;;;8.33;100.00
64933;BME280;51446;53.850;10.662;2024-03-02T00:56:18;100387.50;;;8.31;100.00
64933;BME280;51446;53.850;10.662;2024-03-02T00:58:44;100390.88;;;8.26;100.00
64933;BME280;51446;53.850;10.662;2024-03-02T01:01:09;100387.59;;;8.38;100.00
64933;BME280;51446;53.850;10.662;2024-03-02T01:03:34;100379.44;;;8.21;100.00
64933;BME280;51446;53.850;10.662;2024-03-02T01:06:00;100386.34;;;8.15;100.00
64933;BME280;51446;53.850;10.662;2024-03-02T01:08:25;100386.84;;;8.43;100.00
64933;BME280;51446;53.850;10.662;2024-03-02T01:10:51;100376.16;;;8.31;100.00
64933;BME280;51446;53.850;10.662;2024-03-02T01:13:17;100382.19;;;8.27;100.00
64933;BME280;51446;53.850;10.662;2024-03-02T01:15:42;100386.41;;;8.20;100.00
64933;BME280;51446;53.850;10.662;2024-03-02T01:18:07;100381.31;;;8.26;100.00
64933;BME280;51446;53.850;10.662;2024-03-02T01:20:33;100385.31;;;8.09;100.00
64933;BME280;51446;53.850;10.662;2024-03-02T01:22:58;100385.41;;;8.13;100.00
64933;BME280;51446;53.850;10.662;2024-03-02T01:25:23;100388.84;;;8.11;100.00
64933;BME280;51446;53.850;10.662;2024-03-02T01:27:48;100385.13;;;7.98;100.00
64933;BME280;51446;53.850;10.662;2024-03-02T01:30:14;100391.94;;;7.91;100.00
64933;BME280;51446;53.850;10.662;2024-03-02T01:32:39;100391.91;;;7.90;100.00
64933;BME280;51446;53.850;10.662;2024-03-02T01:35:05;100388.66;;;8.02;100.00
64933;BME280;51446;53.850;10.662;2024-03-02T01:37:32;100386.22;;;8.11;100.00
64933;BME280;51446;53.850;10.662;2024-03-02T01:39:57;100391.81;;;7.85;100.00
64933;BME280;51446;53.850;10.662;2024-03-02T01:42:23;100383.78;;;7.76;100.00
64933;BME280;51446;53.850;10.662;2024-03-02T01:44:48;100376.09;;;7.84;100.00
64933;BME280;51446;53.850;10.662;2024-03-02T01:47:13;100375.28;;;7.86;100.00
64933;BME280;51446;53.850;10.662;2024-03-02T01:49:39;100376.03;;;7.80;100.00
64933;BME280;51446;53.850;10.662;2024-03-02T01:52:06;100377.66;;;7.74;100.00
64933;BME280;51446;53.850;10.662;2024-03-02T01:54:31;100370.94;;;7.85;100.00
64933;BME280;51446;53.850;10.662;2024-03-02T01:56:56;100373.47;;;7.82;100.00
64933;BME280;51446;53.850;10.662;2024-03-02T01:59:22;100368.38;;;7.87;100.00
64933;BME280;51446;53.850;10.662;2024-03-02T02:01:47;100362.28;;;7.89;100.00
64933;BME280;51446;53.850;10.662;2024-03-02T02:04:12;100357.94;;;7.88;100.00
64933;BME280;51446;53.850;10.662;2024-03-02T02:06:38;100356.75;;;7.72;100.00
64933;BME280;51446;53.850;10.662;2024-03-02T02:09:04;100349.00;;;7.77;100.00
64933;BME280;51446;53.850;10.662;2024-03-02T02:11:29;100352.56;;;7.80;100.00
64933;BME280;51446;53.850;10.662;2024-03-02T02:13:54;100341.97;;;7.73;100.00
64933;BME280;51446;53.850;10.662;2024-03-02T02:16:20;100335.34;;;7.90;100.00
64933;BME280;51446;53.850;10.662;2024-03-02T02:18:46;100341.28;;;7.83;100.00
64933;BME280;51446;53.850;10.662;2024-03-02T02:21:11;100345.09;;;7.99;100.00
64933;BME280;51446;53.850;10.662;2024-03-02T02:23:36;100349.50;;;8.02;100.00
64933;BME280;51446;53.850;10.662;2024-03-02T02:26:01;100344.75;;;7.82;100.00
64933;BME280;51446;53.850;10.662;2024-03-02T02:28:28;100353.16;;;7.67;100.00
64933;BME280;51446;53.850;10.662;2024-03-02T02:30:54;100353.63;;;7.90;100.00
64933;BME280;51446;53.850;10.662;2024-03-02T02:33:21;100347.25;;;7.76;100.00
64933;BME280;51446;53.850;10.662;2024-03-02T02:35:46;100342.97;;;7.78;100.00
64933;BME280;51446;53.850;10.662;2024-03-02T02:38:11;100349.19;;;7.86;100.00
64933;BME280;51446;53.850;10.662;2024-03-02T02:40:37;100342.06;;;7.77;100.00
64933;BME280;51446;53.850;10.662;2024-03-02T02:43:02;100349.97;;;7.82;100.00
64933;BME280;51446;53.850;10.662;2024-03-02T02:45:27;100358.44;;;7.70;100.00
64933;BME280;51446;53.850;10.662;2024-03-02T02:47:52;100357.03;;;7.88;100.00
64933;BME280;51446;53.850;10.662;2024-03-02T02:50:18;100360.22;;;7.73;100.00
64933;BME280;51446;53.850;10.662;2024-03-02T02:52:43;100356.59;;;7.66;100.00
64933;BME280;51446;53.850;10.662;2024-03-02T02:55:10;100359.16;;;7.63;100.00
64933;BME280;51446;53.850;10.662;2024-03-02T02:57:37;100356.81;;;7.75;100.00
64933;BME280;51446;53.850;10.662;2024-03-02T03:00:07;100356.81;;;7.75;100.00
64933;BME280;51446;53.850;10.662;2024-03-02T03:02:38;100357.59;;;7.71;100.00
64933;BME280;51446;53.850;10.662;2024-03-02T03:05:11;100353.25;;;7.72;100.00
64933;BME280;51446;53.850;10.662;2024-03-02T03:07:37;100365.88;;;7.52;100.00
64933;BME280;51446;53.850;10.662;2024-03-02T03:10:03;100364.84;;;7.43;100.00
64933;BME280;51446;53.850;10.662;2024-03-02T03:12:29;100360.56;;;7.47;100.00
64933;BME280;51446;53.850;10.662;2024-03-02T03:14:55;100363.44;;;7.59;100.00
64933;BME280;51446;53.850;10.662;2024-03-02T03:17:23;100355.50;;;7.55;100.00
64933;BME280;51446;53.850;10.662;2024-03-02T03:19:49;100354.56;;;7.51;100.00
64933;BME280;51446;53.850;10.662;2024-03-02T03:22:15;100358.00;;;7.50;100.00
64933;BME280;51446;53.850;10.662;2024-03-02T03:24:40;100354.25;;;7.37;100.00
64933;BME280;51446;53.850;10.662;2024-03-02T03:27:06;100346.78;;;7.54;100.00
64933;BME280;51446;53.850;10.662;2024-03-02T03:29:31;100353.66;;;7.49;100.00
64933;BME280;51446;53.850;10.662;2024-03-02T03:31:56;100358.72;;;7.43;100.00
64933;BME280;51446;53.850;10.662;2024-03-02T03:34:21;100349.72;;;7.28;100.00
64933;BME280;51446;53.850;10.662;2024-03-02T03:36:47;100357.56;;;7.30;100.00
64933;BME280;51446;53.850;10.662;2024-03-02T03:39:12;100356.84;;;7.36;100.00
64933;BME280;51446;53.850;10.662;2024-03-02T03:41:37;100349.91;;;7.36;100.00
64933;BME280;51446;53.850;10.662;2024-03-02T03:44:02;100344.50;;;7.28;100.00
64933;BME280;51446;53.850;10.662;2024-03-02T03:46:29;100349.72;;;7.28;100.00
64933;BME280;51446;53.850;10.662;2024-03-02T03:48:54;100332.00;;;7.14;100.00
64933;BME280;51446;53.850;10.662;2024-03-02T03:51:21;100348.81;;;7.26;100.00
64933;BME280;51446;53.850;10.662;2024-03-02T03:53:47;100349.53;;;7.19;100.00
64933;BME280;51446;53.850;10.662;2024-03-02T03:56:12;100344.34;;;7.21;100.00
64933;BME280;51446;53.850;10.662;2024-03-02T03:58:38;100343.78;;;7.36;100.00
64933;BME280;51446;53.850;10.662;2024-03-02T04:01:03;100341.72;;;7.21;100.00
64933;BME280;51446;53.850;10.662;2024-03-02T04:03:28;100349.59;;;7.22;100.00
64933;BME280;51446;53.850;10.662;2024-03-02T04:05:54;100347.97;;;7.27;100.00
64933;BME280;51446;53.850;10.662;2024-03-02T04:08:19;100345.84;;;7.11;100.00
64933;BME280;51446;53.850;10.662;2024-03-02T04:10:44;100345.81;;;7.09;100.00
64933;BME280;51446;53.850;10.662;2024-03-02T04:13:10;100351.19;;;7.17;100.00
64933;BME280;51446;53.850;10.662;2024-03-02T04:15:35;100350.94;;;7.05;100.00
64933;BME280;51446;53.850;10.662;2024-03-02T04:18:00;100352.81;;;7.10;100.00
64933;BME280;51446;53.850;10.662;2024-03-02T04:20:25;100353.72;;;7.12;100.00
64933;BME280;51446;53.850;10.662;2024-03-02T04:22:51;100350.25;;;7.14;100.00
64933;BME280;51446;53.850;10.662;2024-03-02T04:25:16;100348.06;;;6.94;100.00
64933;BME280;51446;53.850;10.662;2024-03-02T04:27:41;100356.28;;;7.11;100.00
64933;BME280;51446;53.850;10.662;2024-03-02T04:30:07;100357.50;;;7.27;100.00
64933;BME280;51446;53.850;10.662;2024-03-02T04:32:32;100360.97;;;7.26;100.00
64933;BME280;51446;53.850;10.662;2024-03-02T04:34:57;100338.28;;;7.22;100.00
64933;BME280;51446;53.850;10.662;2024-03-02T04:37:23;100357.28;;;7.16;100.00
64933;BME280;51446;53.850;10.662;2024-03-02T04:39:48;100352.75;;;7.07;100.00
64933;BME280;51446;53.850;10.662;2024-03-02T04:42:13;100355.53;;;7.17;100.00
64933;BME280;51446;53.850;10.662;2024-03-02T04:44:39;100364.03;;;7.08;100.00
64933;BME280;51446;53.850;10.662;2024-03-02T04:47:04;100358.66;;;7.00;100.00
64933;BME280;51446;53.850;10.662;2024-03-02T04:49:30;100357.41;;;7.22;100.00
64933;BME280;51446;53.850;10.662;2024-03-02T04:51:55;100362.84;;;7.33;100.00
64933;BME280;51446;53.850;10.662;2024-03-02T04:54:22;100361.97;;;7.33;100.00
64933;BME280;51446;53.850;10.662;2024-03-02T04:56:47;100365.38;;;7.28;100.00
64933;BME280;51446;53.850;10.662;2024-03-02T04:59:18;100364.50;;;7.28;100.00
64933;BME280;51446;53.850;10.662;2024-03-02T05:01:44;100360.03;;;7.22;100.00
64933;BME280;51446;53.850;10.662;2024-03-02T05:04:09;100365.31;;;7.25;100.00
64933;BME280;51446;53.850;10.662;2024-03-02T05:06:37;100366.16;;;7.26;100.00
64933;BME280;51446;53.850;10.662;2024-03-02T05:09:03;100376.22;;;7.07;100.00
64933;BME280;51446;53.850;10.662;2024-03-02T05:11:28;100362.47;;;7.15;100.00
64933;BME280;51446;53.850;10.662;2024-03-02T05:14:03;100365.16;;;7.19;100.00
64933;BME280;51446;53.850;10.662;2024-03-02T05:16:28;100370.09;;;7.07;100.00
64933;BME280;51446;53.850;10.662;2024-03-02T05:18:53;100358.22;;;7.20;100.00
64933;BME280;51446;53.850;10.662;2024-03-02T05:21:19;100357.81;;;7.03;100.00
64933;BME280;51446;53.850;10.662;2024-03-02T05:23:44;100362.97;;;7.00;100.00
64933;BME280;51446;53.850;10.662;2024-03-02T05:26:10;100351.81;;;7.05;100.00
64933;BME280;51446;53.850;10.662;2024-03-02T05:28:38;100351.84;;;7.07;100.00
64933;BME280;51446;53.850;10.662;2024-03-02T05:31:03;100348.56;;;7.16;100.00
64933;BME280;51446;53.850;10.662;2024-03-02T05:33:28;100350.09;;;7.06;100.00
64933;BME280;51446;53.850;10.662;2024-03-02T05:35:56;100351.00;;;7.08;100.00
64933;BME280;51446;53.850;10.662;2024-03-02T05:38:21;100353.72;;;7.12;100.00
64933;BME280;51446;53.850;10.662;2024-03-02T05:40:47;100341.50;;;7.11;100.00
64933;BME280;51446;53.850;10.662;2024-03-02T05:43:12;100345.13;;;7.17;100.00
64933;BME280;51446;53.850;10.662;2024-03-02T05:45:37;100356.88;;;6.99;100.00
64933;BME280;51446;53.850;10.662;2024-03-02T05:48:03;100347.59;;;7.10;100.00
64933;BME280;51446;53.850;10.662;2024-03-02T05:50:28;100345.69;;;7.03;100.00
64933;BME280;51446;53.850;10.662;2024-03-02T05:52:53;100344.69;;;6.98;100.00
64933;BME280;51446;53.850;10.662;2024-03-02T05:55:18;100336.13;;;7.04;100.00
64933;BME280;51446;53.850;10.662;2024-03-02T05:57:44;100337.75;;;6.99;100.00
64933;BME280;51446;53.850;10.662;2024-03-02T06:00:09;100351.03;;;7.09;100.00
64933;BME280;51446;53.850;10.662;2024-03-02T06:02:39;100349.88;;;6.97;100.00
64933;BME280;51446;53.850;10.662;2024-03-02T06:05:04;100350.94;;;7.05;100.00
64933;BME280;51446;53.850;10.662;2024-03-02T06:07:30;100350.16;;;7.09;100.00
64933;BME280;51446;53.850;10.662;2024-03-02T06:09:55;100366.47;;;7.00;100.00
64933;BME280;51446;53.850;10.662;2024-03-02T06:12:20;100363.97;;;7.05;100.00
64933;BME280;51446;53.850;10.662;2024-03-02T06:14:45;100361.97;;;6.93;100.00
64933;BME280;51446;53.850;10.662;2024-03-02T06:17:11;100364.41;;;6.87;100.00
64933;BME280;51446;53.850;10.662;2024-03-02T06:19:36;100363.63;;;6.91;100.00
64933;BME280;51446;53.850;10.662;2024-03-02T06:22:01;100369.78;;;6.93;100.00
64933;BME280;51446;53.850;10.662;2024-03-02T06:24:26;100369.13;;;7.02;100.00
64933;BME280;51446;53.850;10.662;2024-03-02T06:26:52;100370.97;;;7.06;100.00
64933;BME280;51446;53.850;10.662;2024-03-02T06:29:17;100369.13;;;7.02;100.00
64933;BME280;51446;53.850;10.662;2024-03-02T06:31:42;100374.47;;;7.08;100.00
64933;BME280;51446;53.850;10.662;2024-03-02T06:34:08;100373.50;;;7.04;100.00
64933;BME280;51446;53.850;10.662;2024-03-02T06:36:33;100364.22;;;7.16;100.00
64933;BME280;51446;53.850;10.662;2024-03-02T06:38:59;100375.59;;;7.19;100.00
64933;BME280;51446;53.850;10.662;2024-03-02T06:41:24;100377.00;;;7.05;100.00
64933;BME280;51446;53.850;10.662;2024-03-02T06:43:49;100374.44;;;7.06;100.00
64933;BME280;51446;53.850;10.662;2024-03-02T06:46:14;100377.72;;;6.98;100.00
64933;BME280;51446;53.850;10.662;2024-03-02T06:48:40;100391.84;;;7.07;100.00
64933;BME280;51446;53.850;10.662;2024-03-02T06:51:05;100399.53;;;7.03;100.00
64933;BME280;51446;53.850;10.662;2024-03-02T06:53:30;100394.53;;;7.10;100.00
64933;BME280;51446;53.850;10.662;2024-03-02T06:55:58;100393.81;;;7.18;100.00
64933;BME280;51446;53.850;10.662;2024-03-02T06:58:23;100392.13;;;7.20;100.00
64933;BME280;51446;53.850;10.662;2024-03-02T07:00:49;100382.38;;;7.12;100.00
64933;BME280;51446;53.850;10.662;2024-03-02T07:03:14;100385.28;;;7.25;100.00
64933;BME280;51446;53.850;10.662;2024-03-02T07:05:39;100377.47;;;7.25;100.00
64933;BME280;51446;53.850;10.662;2024-03-02T07:08:05;100366.31;;;7.31;100.00
64933;BME280;51446;53.850;10.662;2024-03-02T07:10:31;100367.19;;;7.33;100.00
64933;BME280;51446;53.850;10.662;2024-03-02T07:12:56;100367.56;;;7.50;100.00
64933;BME280;51446;53.850;10.662;2024-03-02T07:15:21;100364.13;;;7.51;100.00
64933;BME280;51446;53.850;10.662;2024-03-02T07:17:55;100365.06;;;7.54;100.00
64933;BME280;51446;53.850;10.662;2024-03-02T07:20:20;100369.34;;;7.51;100.00
64933;BME280;51446;53.850;10.662;2024-03-02T07:22:46;100379.53;;;7.40;100.00
64933;BME280;51446;53.850;10.662;2024-03-02T07:25:11;100383.28;;;7.53;100.00
64933;BME280;51446;53.850;10.662;2024-03-02T07:27:37;100391.59;;;7.74;100.00
64933;BME280;51446;53.850;10.662;2024-03-02T07:30:03;100387.38;;;7.81;100.00
64933;BME280;51446;53.850;10.662;2024-03-02T07:32:29;100389.13;;;7.82;100.00
64933;BME280;51446;53.850;10.662;2024-03-02T07:34:54;100387.75;;;7.99;100.00
64933;BME280;51446;53.850;10.662;2024-03-02T07:37:20;100389.38;;;7.94;100.00
64933;BME280;51446;53.850;10.662;2024-03-02T07:39:46;100389.53;;;8.02;100.00
64933;BME280;51446;53.850;10.662;2024-03-02T07:42:11;100390.38;;;7.99;100.00
64933;BME280;51446;53.850;10.662;2024-03-02T07:44:36;100396.56;;;8.05;100.00
64933;BME280;51446;53.850;10.662;2024-03-02T07:47:03;100397.31;;;7.99;100.00
64933;BME280;51446;53.850;10.662;2024-03-02T07:49:28;100397.34;;;8.01;100.00
64933;BME280;51446;53.850;10.662;2024-03-02T07:51:54;100401.69;;;8.00;100.00
64933;BME280;51446;53.850;10.662;2024-03-02T07:54:19;100411.44;;;8.09;100.00
64933;BME280;51446;53.850;10.662;2024-03-02T07:56:44;100411.59;;;8.18;100.00
64933;BME280;51446;53.850;10.662;2024-03-02T07:59:10;100411.38;;;8.48;100.00
64933;BME280;51446;53.850;10.662;2024-03-02T08:01:35;100416.13;;;8.73;100.00
64933;BME280;51446;53.850;10.662;2024-03-02T08:04:01;100413.06;;;8.97;100.00
64933;BME280;51446;53.850;10.662;2024-03-02T08:06:29;100419.38;;;9.10;100.00
64933;BME280;51446;53.850;10.662;2024-03-02T08:08:55;100422.97;;;9.16;100.00
64933;BME280;51446;53.850;10.662;2024-03-02T08:11:21;100419.25;;;9.02;100.00
64933;BME280;51446;53.850;10.662;2024-03-02T08:13:47;100419.09;;;8.93;100.00
64933;BME280;51446;53.850;10.662;2024-03-02T08:16:12;100417.31;;;8.90;100.00
64933;BME280;51446;53.850;10.662;2024-03-02T08:18:37;100418.56;;;9.14;100.00
64933;BME280;51446;53.850;10.662;2024-03-02T08:21:03;100420.38;;;9.16;100.00
64933;BME280;51446;53.850;10.662;2024-03-02T08:23:28;100413.06;;;8.97;100.00
64933;BME280;51446;53.850;10.662;2024-03-02T08:25:54;100421.03;;;9.05;100.00
64933;BME280;51446;53.850;10.662;2024-03-02T08:28:19;100416.63;;;9.00;100.00
64933;BME280;51446;53.850;10.662;2024-03-02T08:30:45;100417.22;;;8.85;100.00
64933;BME280;51446;53.850;10.662;2024-03-02T08:33:10;100416.28;;;8.80;100.00
64933;BME280;51446;53.850;10.662;2024-03-02T08:35:35;100412.00;;;8.85;100.00
64933;BME280;51446;53.850;10.662;2024-03-02T08:38:02;100416.66;;;9.03;100.00
64933;BME280;51446;53.850;10.662;2024-03-02T08:40:28;100418.34;;;9.00;100.00
64933;BME280;51446;53.850;10.662;2024-03-02T08:42:53;100425.31;;;8.99;100.00
64933;BME280;51446;53.850;10.662;2024-03-02T08:45:19;100441.03;;;9.01;100.00
64933;BME280;51446;53.850;10.662;2024-03-02T08:47:45;100445.78;;;8.73;100.00
64933;BME280;51446;53.850;10.662;2024-03-02T08:50:11;100441.47;;;8.77;100.00
64933;BME280;51446;53.850;10.662;2024-03-02T08:52:36;100440.50;;;8.70;100.00
64933;BME280;51446;53.850;10.662;2024-03-02T08:55:02;100450.06;;;8.70;100.00
64933;BME280;51446;53.850;10.662;2024-03-02T08:57:27;100450.09;;;8.71;100.00
64933;BME280;51446;53.850;10.662;2024-03-02T08:59:52;100452.56;;;8.62;100.00
64933;BME280;51446;53.850;10.662;2024-03-02T09:02:18;100456.69;;;8.50;100.00
64933;BME280;51446;53.850;10.662;2024-03-02T09:04:43;100457.56;;;8.51;100.00
64933;BME280;51446;53.850;10.662;2024-03-02T09:07:08;100461.38;;;8.68;100.00
64933;BME280;51446;53.850;10.662;2024-03-02T09:09:33;100467.56;;;8.74;100.00
64933;BME280;51446;53.850;10.662;2024-03-02T09:11:59;100462.50;;;8.83;100.00
64933;BME280;51446;53.850;10.662;2024-03-02T09:14:24;100458.75;;;8.68;100.00
64933;BME280;51446;53.850;10.662;2024-03-02T09:16:49;100459.88;;;8.83;100.00
64933;BME280;51446;53.850;10.662;2024-03-02T09:19:15;100465.19;;;8.86;100.00
64933;BME280;51446;53.850;10.662;2024-03-02T09:21:42;100460.34;;;9.08;100.00
64933;BME280;51446;53.850;10.662;2024-03-02T09:24:07;100462.63;;;9.43;100.00
64933;BME280;51446;53.850;10.662;2024-03-02T09:26:32;100468.88;;;9.51;100.00
64933;BME280;51446;53.850;10.662;2024-03-02T09:28:58;100463.31;;;9.90;100.00
64933;BME280;51446;53.850;10.662;2024-03-02T09:31:23;100463.88;;;10.34;100.00
64933;BME280;51446;53.850;10.662;2024-03-02T09:33:48;100459.91;;;10.68;100.00
64933;BME280;51446;53.850;10.662;2024-03-02T09:36:21;100463.78;;;11.10;100.00
64933;BME280;51446;53.850;10.662;2024-03-02T09:38:47;100460.81;;;11.84;100.00
64933;BME280;51446;53.850;10.662;2024-03-02T09:41:12;100455.88;;;12.60;100.00
64933;BME280;51446;53.850;10.662;2024-03-02T09:43:39;100460.31;;;12.92;100.00
64933;BME280;51446;53.850;10.662;2024-03-02T09:46:04;100455.94;;;13.59;100.00
64933;BME280;51446;53.850;10.662;2024-03-02T09:48:30;100463.78;;;13.97;100.00
64933;BME280;51446;53.850;10.662;2024-03-02T09:50:55;100469.34;;;15.09;100.00
64933;BME280;51446;53.850;10.662;2024-03-02T09:53:22;100465.03;;;14.99;100.00
64933;BME280;51446;53.850;10.662;2024-03-02T09:55:48;100472.28;;;14.58;100.00
64933;BME280;51446;53.850;10.662;2024-03-02T09:58:13;100469.16;;;15.31;100.00
64933;BME280;51446;53.850;10.662;2024-03-02T10:00:38;100465.69;;;15.24;100.00
64933;BME280;51446;53.850;10.662;2024-03-02T10:03:04;100469.72;;;15.67;100.00
64933;BME280;51446;53.850;10.662;2024-03-02T10:05:30;100475.84;;;14.46;100.00
64933;BME280;51446;53.850;10.662;2024-03-02T10:07:59;100466.25;;;14.31;100.00
64933;BME280;51446;53.850;10.662;2024-03-02T10:10:34;100471.59;;;14.22;100.00
64933;BME280;51446;53.850;10.662;2024-03-02T10:13:05;100473.47;;;13.77;100.00
64933;BME280;51446;53.850;10.662;2024-03-02T10:15:30;100467.22;;;14.05;100.00
64933;BME280;51446;53.850;10.662;2024-03-02T10:17:55;100467.06;;;14.46;100.00
64933;BME280;51446;53.850;10.662;2024-03-02T10:20:22;100477.75;;;14.16;100.00
64933;BME280;51446;53.850;10.662;2024-03-02T10:22:48;100471.69;;;13.86;100.00
64933;BME280;51446;53.850;10.662;2024-03-02T10:25:33;100479.66;;;13.51;100.00
64933;BME280;51446;53.850;10.662;2024-03-02T10:27:59;100462.97;;;13.30;100.00
64933;BME280;51446;53.850;10.662;2024-03-02T10:30:28;100469.94;;;12.79;100.00
64933;BME280;51446;53.850;10.662;2024-03-02T10:32:54;100473.44;;;12.72;100.00
64933;BME280;51446;53.850;10.662;2024-03-02T10:35:21;100455.81;;;12.46;100.00
64933;BME280;51446;53.850;10.662;2024-03-02T10:37:48;100472.44;;;12.34;100.00
64933;BME280;51446;53.850;10.662;2024-03-02T10:40:14;100459.22;;;12.14;100.00
64933;BME280;51446;53.850;10.662;2024-03-02T10:42:41;100469.72;;;12.14;100.00
64933;BME280;51446;53.850;10.662;2024-03-02T10:45:09;100462.75;;;12.18;100.00
64933;BME280;51446;53.850;10.662;2024-03-02T10:47:36;100452.97;;;11.89;100.00
64933;BME280;51446;53.850;10.662;2024-03-02T10:50:04;100457.25;;;11.76;100.00
64933;BME280;51446;53.850;10.662;2024-03-02T10:52:36;100460.84;;;11.87;100.00
64933;BME280;51446;53.850;10.662;2024-03-02T10:55:02;100465.16;;;11.79;100.00
64933;BME280;51446;53.850;10.662;2024-03-02T10:57:33;100462.53;;;11.79;100.00
64933;BME280;51446;53.850;10.662;2024-03-02T11:00:03;100466.84;;;11.68;100.00
64933;BME280;51446;53.850;10.662;2024-03-02T11:02:31;100471.25;;;11.75;100.00
64933;BME280;51446;53.850;10.662;2024-03-02T11:05:00;100471.25;;;11.72;100.00
64933;BME280;51446;53.850;10.662;2024-03-02T11:07:28;100474.59;;;11.51;100.00
64933;BME280;51446;53.850;10.662;2024-03-02T11:09:57;100470.25;;;11.51;100.00
64933;BME280;51446;53.850;10.662;2024-03-02T11:12:31;100463.25;;;11.53;100.00
64933;BME280;51446;53.850;10.662;2024-03-02T11:15:00;100479.84;;;11.49;100.00
64933;BME280;51446;53.850;10.662;2024-03-02T11:17:25;100469.47;;;11.69;100.00
64933;BME280;51446;53.850;10.662;2024-03-02T11:19:51;100461.44;;;11.48;100.00
64933;BME280;51446;53.850;10.662;2024-03-02T11:22:17;100471.06;;;11.44;100.00
64933;BME280;51446;53.850;10.662;2024-03-02T11:24:50;100465.81;;;11.42;100.00
64933;BME280;51446;53.850;10.662;2024-03-02T11:33:01;100466.84;;;11.69;100.00
64933;BME280;51446;53.850;10.662;2024-03-02T11:35:36;100472.94;;;11.68;100.00
64933;BME280;51446;53.850;10.662;2024-03-02T11:38:03;100472.38;;;12.17;100.00
64933;BME280;51446;53.850;10.662;2024-03-02T11:40:29;100467.25;;;12.54;100.00
64933;BME280;51446;53.850;10.662;2024-03-02T11:42:54;100463.81;;;12.71;100.00
64933;BME280;51446;53.850;10.662;2024-03-02T11:45:24;100461.13;;;12.61;100.00
64933;BME280;51446;53.850;10.662;2024-03-02T11:47:56;100466.34;;;12.38;100.00
64933;BME280;51446;53.850;10.662;2024-03-02T11:50:36;100465.41;;;12.22;100.00
64933;BME280;51446;53.850;10.662;2024-03-02T11:53:06;100463.69;;;12.34;100.00
64933;BME280;51446;53.850;10.662;2024-03-02T11:55:34;100465.56;;;12.86;100.00
64933;BME280;51446;53.850;10.662;2024-03-02T11:58:02;100467.34;;;13.22;100.00
64933;BME280;51446;53.850;10.662;2024-03-02T12:00:27;100470.00;;;13.56;100.00
64933;BME280;51446;53.850;10.662;2024-03-02T12:03:06;100466.44;;;13.73;100.00
64933;BME280;51446;53.850;10.662;2024-03-02T12:05:32;100476.97;;;13.88;100.00
64933;BME280;51446;53.850;10.662;2024-03-02T12:07:58;100476.91;;;14.03;100.00
64933;BME280;51446;53.850;10.662;2024-03-02T12:10:25;100477.75;;;14.09;100.00
64933;BME280;51446;53.850;10.662;2024-03-02T12:13:00;100474.25;;;14.10;100.00
64933;BME280;51446;53.850;10.662;2024-03-02T12:15:27;100468.75;;;14.67;100.00
64933;BME280;51446;53.850;10.662;2024-03-02T12:17:56;100468.66;;;14.81;100.00
64933;BME280;51446;53.850;10.662;2024-03-02T12:20:23;100458.38;;;14.25;100.00
64933;BME280;51446;53.850;10.662;2024-03-02T12:22:52;100472.41;;;14.35;100.00
64933;BME280;51446;53.850;10.662;2024-03-02T12:25:22;100473.22;;;14.45;100.00
64933;BME280;51446;53.850;10.662;2024-03-02T12:27:50;100466.28;;;14.25;100.00
64933;BME280;51446;53.850;10.662;2024-03-02T12:30:17;100472.19;;;14.80;100.00
64933;BME280;51446;53.850;10.662;2024-03-02T12:32:42;100463.66;;;15.55;100.00
64933;BME280;51446;53.850;10.662;2024-03-02T12:35:10;100453.41;;;16.10;100.00
64933;BME280;51446;53.850;10.662;2024-03-02T12:40:12;100450.69;;;16.80;100.00
64933;BME280;51446;53.850;10.662;2024-03-02T12:42:41;100451.00;;;16.60;100.00